Time;durP1;ratioP1;P1;durP2;ratioP2;P2;SDS_P1;SDS_P2;PMS_P1;PMS_P2;Temp;Humidity;BMP_temperature;BMP_pressure;BME280_temperature;BME280_humidity;BME280_pressure;Samples;Min_cycle;Max_cycle;Signal;HPM_P1;HPM_P2
2023/02/27 00:00:13;;;;;;;10.43;4.53;;;7.60;99.90;;;7.71;58.25;102803.84;5032481;28;20033;-69
2023/02/27 00:02:42;;;;;;;11.40;5.43;;;7.60;99.90;;;7.70;57.83;102813.53;5032494;28;20112;-69
2023/02/27 00:05:11;;;;;;;9.90;4.97;;;7.50;99.90;;;7.73;58.11;102799.53;5032383;28;20044;-69
2023/02/27 00:07:40;;;;;;;9.73;5.72;;;7.50;99.90;;;7.78;57.84;102804.16;5032393;28;20119;-69
2023/02/27 00:10:12;;;;;;;10.40;5.57;;;7.60;99.90;;;7.49;57.34;102752.09;5032434;28;20034;-69
2023/02/27 00:12:41;;;;;;;11.05;5.25;;;7.60;99.90;;;7.75;57.70;102808.41;5032357;28;20523;-69
2023/02/27 00:15:13;;;;;;;8.32;5.32;;;7.60;99.90;;;7.75;57.21;102805.78;5032854;28;20091;-69
2023/02/27 00:17:42;;;;;;;9.50;4.70;;;7.60;99.90;;;7.70;57.67;102810.88;5032335;28;20037;-69
2023/02/27 00:20:14;;;;;;;8.10;5.13;;;7.50;99.90;;;7.71;57.93;102811.75;5032545;28;20467;-68
2023/02/27 00:22:43;;;;;;;9.35;4.90;;;7.50;99.90;;;7.63;57.69;102808.84;5032500;28;20065;-69
2023/02/27 00:25:12;;;;;;;16.83;5.70;;;7.50;99.90;;;7.65;57.75;102806.25;5032956;28;20056;-69
2023/02/27 00:27:41;;;;;;;11.18;5.03;;;7.50;99.90;;;7.65;57.46;102801.91;5032441;28;20535;-69
2023/02/27 00:30:15;;;;;;;6.50;5.03;;;7.50;99.90;;;7.52;57.60;102807.53;5032423;28;20069;-69
2023/02/27 00:32:44;;;;;;;8.35;4.88;;;7.40;99.90;;;7.58;58.09;102797.25;5031370;28;20404;-69
2023/02/27 00:35:13;;;;;;;6.70;4.68;;;7.40;99.90;;;7.65;57.89;102801.91;5031035;28;20056;-69
2023/02/27 00:37:41;;;;;;;9.50;5.35;;;7.40;99.90;;;7.61;57.60;102796.44;5047601;28;20072;-69
2023/02/27 00:40:11;;;;;;;9.25;5.18;;;7.40;99.90;;;7.53;57.34;102796.16;5031061;28;20045;-69
2023/02/27 00:42:40;;;;;;;8.38;5.15;;;7.40;99.90;;;7.56;57.57;102788.38;5034169;28;20041;-69
2023/02/27 00:45:11;;;;;;;11.63;5.40;;;7.40;99.90;;;7.62;57.17;102799.16;5036210;28;20049;-69
2023/02/27 00:47:39;;;;;;;10.23;4.93;;;7.40;99.90;;;7.64;57.18;102800.13;5035911;28;20122;-69
2023/02/27 00:50:09;;;;;;;7.95;4.65;;;7.40;99.90;;;7.59;56.84;102777.94;5036059;28;20049;-69
2023/02/27 00:52:37;;;;;;;6.88;5.07;;;7.40;99.90;;;7.52;56.94;102789.09;5036023;28;20049;-69
2023/02/27 00:55:07;;;;;;;9.82;4.80;;;7.40;99.90;;;7.54;56.83;102795.31;5035991;28;20047;-69
2023/02/27 00:57:36;;;;;;;7.63;5.13;;;7.40;99.90;;;7.48;56.69;102795.09;5035951;28;20065;-69
2023/02/27 01:00:07;;;;;;;9.45;5.00;;;7.40;99.90;;;7.27;56.58;102796.88;5035862;28;20053;-68
2023/02/27 01:02:37;;;;;;;10.30;5.38;;;7.30;99.90;;;7.22;57.74;102801.03;5035510;28;20120;-68
2023/02/27 01:05:09;;;;;;;10.15;5.15;;;7.00;99.90;;;7.32;57.72;102802.34;5035866;28;20072;-69
2023/02/27 01:07:37;;;;;;;10.10;4.83;;;7.10;99.90;;;6.90;57.57;102799.75;5051109;28;20079;-69
2023/02/27 01:10:08;;;;;;;8.02;4.60;;;6.90;99.90;;;6.98;57.51;102793.06;5034572;28;20063;-68
2023/02/27 01:12:38;;;;;;;10.43;5.30;;;6.80;99.90;;;6.58;58.32;102765.06;5035661;28;20038;-69
2023/02/27 01:15:09;;;;;;;8.45;4.80;;;6.60;99.90;;;6.90;58.21;102797.13;5034281;28;20045;-69
2023/02/27 01:17:39;;;;;;;7.75;4.97;;;6.70;99.90;;;6.67;58.39;102787.38;5035283;28;20041;-68
2023/02/27 01:20:10;;;;;;;9.65;4.97;;;6.60;99.90;;;6.70;58.48;102784.84;5035598;28;20076;-68
2023/02/27 01:22:39;;;;;;;9.60;4.80;;;6.60;99.90;;;6.78;58.36;102785.19;5034147;28;20049;-69
2023/02/27 01:25:08;;;;;;;10.57;4.82;;;6.60;99.90;;;6.68;58.62;102788.28;5034091;28;20470;-69
2023/02/27 01:27:39;;;;;;;7.97;5.43;;;6.60;99.90;;;6.60;59.04;102789.69;5034107;28;20400;-68
2023/02/27 01:30:11;;;;;;;6.72;5.00;;;6.40;99.90;;;6.34;58.94;102781.59;5034049;28;20469;-69
2023/02/27 01:32:41;;;;;;;10.38;5.15;;;6.40;99.90;;;6.59;58.87;102794.03;5034041;28;20492;-69
2023/02/27 01:35:11;;;;;;;8.32;5.07;;;6.40;99.90;;;6.21;59.36;102780.97;5035245;28;20053;-68
2023/02/27 01:37:40;;;;;;;10.80;5.38;;;6.20;99.90;;;6.30;59.54;102779.66;5034098;28;20382;-69
2023/02/27 01:40:10;;;;;;;13.35;5.53;;;6.10;99.90;;;6.32;59.24;102779.72;5035132;28;20478;-69
2023/02/27 01:42:39;;;;;;;14.15;5.10;;;6.20;99.90;;;6.49;59.31;102785.69;5033808;28;20455;-69
2023/02/27 01:45:31;;;;;;;9.23;5.53;;;6.30;99.90;;;6.65;59.21;102782.88;5033750;28;20049;-69
2023/02/27 01:48:10;;;;;;;12.73;5.40;;;6.40;99.90;;;6.73;59.04;102776.22;5033723;28;20381;-69
2023/02/27 01:50:46;;;;;;;5.93;4.23;;;6.50;99.90;;;6.59;58.67;102745.81;5033759;28;20546;-69
2023/02/27 01:53:17;;;;;;;10.50;5.30;;;6.60;99.90;;;6.16;58.54;102667.81;5034986;28;20292;-69
2023/02/27 01:55:47;;;;;;;;;;;6.60;99.90;;;6.89;58.73;102782.16;5034027;28;20053;-68
2023/02/27 01:58:16;;;;;;;9.70;5.25;;;6.70;99.90;;;6.94;58.62;102784.97;5033550;28;20330;-69
2023/02/27 02:00:45;;;;;;;7.07;5.20;;;6.70;99.90;;;7.01;58.68;102781.75;5050109;28;20073;-69
2023/02/27 02:03:23;;;;;;;9.73;4.97;;;6.80;99.90;;;7.01;58.50;102793.19;5034628;28;20049;-69
2023/02/27 02:05:55;;;;;;;6.68;4.60;;;6.80;99.90;;;6.97;58.57;102788.63;5033471;28;20049;-68
2023/02/27 02:08:27;;;;;;;13.18;5.22;;;6.80;99.90;;;7.05;58.48;102795.09;5034721;28;20055;-69
2023/02/27 02:10:58;;;;;;;11.00;4.88;;;6.80;99.90;;;7.04;58.40;102792.44;5049983;28;20116;-69
2023/02/27 02:13:27;;;;;;;11.75;5.10;;;6.80;99.90;;;7.08;58.06;102791.72;5034392;28;20061;-69
2023/02/27 02:16:16;;;;;;;8.85;4.40;;;6.80;99.90;;;7.10;57.86;102790.03;5034734;28;20046;-69
2023/02/27 02:18:54;;;;;;;8.95;5.40;;;6.90;99.90;;;7.06;58.00;102788.13;5033187;28;20058;-69
2023/02/27 02:22:09;;;;;;;9.05;5.03;;;6.80;99.90;;;7.03;57.99;102790.59;5033154;28;20067;-69
2023/02/27 02:25:40;;;;;;;10.43;5.18;;;6.80;99.90;;;7.00;58.05;102782.59;5034100;28;20458;-69
2023/02/27 02:28:29;;;;;;;10.77;5.10;;;6.80;99.90;;;7.04;57.91;102784.53;5032968;28;20056;-69
2023/02/27 02:31:25;;;;;;;8.52;5.13;;;6.90;99.90;;;7.08;57.89;102796.97;5034190;28;20144;-69
2023/02/27 02:34:53;;;;;;;8.85;4.53;;;6.90;99.90;;;7.03;58.26;102790.59;5032815;28;20511;-69
2023/02/27 02:38:11;;;;;;;10.27;5.05;;;6.70;99.90;;;6.77;58.22;102755.38;5049398;28;20076;-69
2023/02/27 02:40:47;;;;;;;9.70;5.13;;;6.70;99.90;;;6.97;58.24;102788.63;5029423;28;20138;-69
2023/02/27 02:43:25;;;;;;;10.32;4.82;;;6.70;99.90;;;6.89;58.24;102778.66;5032612;28;20136;-69
2023/02/27 02:46:04;;;;;;;11.32;5.50;;;6.70;99.90;;;6.95;58.48;102787.66;5032698;28;20504;-68
2023/02/27 02:48:39;;;;;;;9.00;6.18;;;6.70;99.90;;;6.90;58.80;102789.22;5033925;28;20049;-69
2023/02/27 02:51:18;;;;;;;12.77;5.55;;;6.70;99.90;;;6.94;58.86;102785.91;5033951;28;20077;-69
2023/02/27 02:53:56;;;;;;;10.55;5.35;;;6.60;99.90;;;6.86;58.92;102783.78;5049128;28;20072;-69
2023/02/27 02:56:32;;;;;;;12.48;6.07;;;6.60;99.90;;;6.91;58.62;102795.41;5032459;28;20397;-69
2023/02/27 02:59:07;;;;;;;8.45;5.82;;;6.60;99.90;;;6.86;58.58;102789.03;5033729;28;20502;-69
2023/02/27 03:01:40;;;;;;;11.38;5.05;;;6.60;99.90;;;6.86;58.48;102789.03;5032341;28;20057;-69
2023/02/27 03:04:14;;;;;;;7.53;4.20;;;6.60;99.90;;;6.52;58.70;102730.63;5032235;28;20111;-69
2023/02/27 03:06:47;;;;;;;9.75;4.50;;;6.60;99.90;;;6.74;58.61;102783.25;5033151;28;20049;-69
2023/02/27 03:09:23;;;;;;;7.93;5.50;;;6.60;99.90;;;6.20;58.81;102688.13;5032258;28;20057;-68
2023/02/27 03:11:55;;;;;;;8.07;4.80;;;6.50;99.90;;;6.70;58.91;102787.50;5033212;28;20049;-68
2023/02/27 03:14:31;;;;;;;13.40;5.03;;;6.50;99.90;;;6.58;58.85;102765.06;5032126;28;20053;-68
2023/02/27 03:17:05;;;;;;;8.90;4.82;;;6.40;99.90;;;6.76;59.11;102789.47;5033403;28;20080;-69
2023/02/27 03:19:40;;;;;;;9.77;5.60;;;6.50;99.90;;;6.25;58.66;102706.72;5032044;28;20052;-69
2023/02/27 03:22:15;;;;;;;9.38;5.50;;;6.50;99.90;;;6.68;58.93;102788.28;5048479;28;20046;-69
2023/02/27 03:24:48;;;;;;;8.18;5.25;;;6.40;99.90;;;6.44;59.16;102763.56;5033231;28;20053;-69
2023/02/27 03:27:19;;;;;;;8.32;4.80;;;6.40;99.90;;;6.53;59.03;102787.59;5031894;28;20488;-69
2023/02/27 03:29:56;;;;;;;12.50;5.22;;;6.30;99.90;;;6.54;59.15;102802.56;5048373;28;20141;-69
2023/02/27 03:32:31;;;;;;;8.93;5.38;;;6.30;99.90;;;6.45;59.36;102794.25;5033163;28;20037;-69
2023/02/27 03:35:00;;;;;;;5.63;4.85;;;6.30;99.90;;;6.52;59.36;102796.34;5031763;28;20061;-69
2023/02/27 03:37:41;;;;;;;10.98;5.63;;;6.20;99.90;;;6.39;59.10;102773.88;5048297;28;20038;-69
2023/02/27 03:40:17;;;;;;;;;;;6.30;99.90;;;6.46;59.36;102796.06;5031955;28;20571;-69
2023/02/27 03:42:53;;;;;;;9.13;4.70;;;6.20;99.90;;;6.48;59.63;102789.16;5031516;28;19932;-69
2023/02/27 03:45:40;;;;;;;11.80;5.40;;;6.20;99.90;;;6.45;59.42;102797.78;5048331;28;20081;-68
2023/02/27 03:48:09;;;;;;;12.13;5.65;;;6.20;99.90;;;6.14;59.56;102737.78;5031619;28;20049;-68
2023/02/27 03:50:38;;;;;;;10.15;4.60;;;6.20;99.90;;;6.39;59.56;102790.56;5031303;28;20140;-68
2023/02/27 03:53:12;;;;;;;5.70;4.95;;;6.20;99.90;;;6.46;59.43;102793.44;5048194;28;20075;-69
2023/02/27 03:55:44;;;;;;;11.43;5.60;;;6.20;99.90;;;6.35;59.51;102786.00;5032846;28;20353;-69
2023/02/27 03:58:14;;;;;;;9.55;5.75;;;6.10;99.90;;;6.38;59.86;102788.78;5032550;28;20052;-69
2023/02/27 04:00:43;;;;;;;8.00;5.30;;;6.10;99.90;;;6.34;59.84;102781.59;5031502;28;20056;-69
2023/02/27 04:03:12;;;;;;;10.13;4.75;;;6.10;99.90;;;6.33;59.80;102795.53;5031290;28;20132;-69
2023/02/27 04:05:41;;;;;;;8.43;4.85;;;6.10;99.90;;;6.31;60.07;102791.94;5048022;28;20049;-69
2023/02/27 04:08:39;;;;;;;7.60;4.57;;;6.10;99.90;;;6.24;59.49;102779.38;5047906;28;20045;-68
2023/02/27 04:11:26;;;;;;;7.55;5.47;;;6.10;99.90;;;6.22;59.83;102798.53;5032699;28;20435;-69
2023/02/27 04:14:14;;;;;;;6.65;5.75;;;6.00;99.90;;;6.29;59.46;102798.88;5032665;28;20128;-69
2023/02/27 04:17:02;;;;;;;9.48;4.90;;;6.00;99.90;;;6.22;59.60;102799.44;5031679;28;20141;-69
2023/02/27 04:19:50;;;;;;;10.32;5.63;;;6.00;99.90;;;6.14;59.54;102806.06;5036612;28;20404;-69
2023/02/27 04:22:32;;;;;;;6.78;6.22;;;5.90;99.90;;;6.14;59.74;102798.19;5036581;28;20041;-69
2023/02/27 04:25:22;;;;;;;8.20;5.68;;;5.90;99.90;;;6.10;60.41;102806.75;5036116;28;20050;-69
2023/02/27 04:27:58;;;;;;;8.67;4.93;;;5.80;99.90;;;6.17;60.13;102800.06;5036281;28;20068;-69
2023/02/27 04:30:38;;;;;;;8.48;5.28;;;5.80;99.90;;;6.13;60.26;102799.03;5036459;28;20444;-69
2023/02/27 04:33:10;;;;;;;;;;;5.90;99.90;;;6.15;60.27;102791.22;5036637;28;20049;-69
2023/02/27 04:35:47;;;;;;;10.10;5.00;;;5.90;99.90;;;6.17;60.29;102798.34;5036080;28;20423;-69
2023/02/27 04:38:22;;;;;;;6.25;5.65;;;5.90;99.90;;;6.11;60.21;102784.03;5036140;28;20107;-69
2023/02/27 04:40:56;;;;;;;8.52;5.35;;;6.00;99.90;;;6.21;60.43;102810.75;5035149;28;20136;-68
2023/02/27 04:43:28;;;;;;;8.98;5.03;;;5.90;99.90;;;6.08;60.38;102787.41;5034641;28;20130;-69
2023/02/27 04:46:00;;;;;;;10.05;5.72;;;6.00;99.90;;;6.10;60.43;102813.75;5050302;28;20053;-69
2023/02/27 04:48:35;;;;;;;8.77;5.70;;;5.90;99.90;;;6.08;60.10;102818.03;5034893;28;20037;-69
2023/02/27 04:51:09;;;;;;;8.85;5.45;;;5.80;99.90;;;6.07;60.39;102819.78;5033543;28;20060;-69
2023/02/27 04:53:46;;;;;;;10.00;5.87;;;5.80;99.90;;;6.03;60.62;102811.69;5034477;28;20041;-69
2023/02/27 04:56:21;;;;;;;13.30;5.38;;;5.80;99.90;;;6.00;60.65;102815.06;5034489;28;20095;-69
2023/02/27 04:58:53;;;;;;;8.73;5.45;;;5.80;99.90;;;6.06;60.52;102824.94;5034742;28;20141;-69
2023/02/27 05:01:32;;;;;;;6.65;5.10;;;5.80;99.90;;;6.06;60.45;102817.97;5034985;28;20052;-68
2023/02/27 05:04:03;;;;;;;12.10;5.97;;;5.80;99.90;;;6.01;60.36;102831.72;5034299;28;20484;-69
2023/02/27 05:06:38;;;;;;;6.97;5.65;;;5.80;99.90;;;5.99;60.65;102862.28;5034296;28;20069;-68
2023/02/27 05:09:14;;;;;;;9.03;5.50;;;5.80;99.90;;;6.09;60.34;102832.97;5034612;28;20042;-69
2023/02/27 05:11:49;;;;;;;9.50;6.17;;;5.80;99.90;;;6.08;60.27;102844.28;5034494;28;20092;-69
2023/02/27 05:14:23;;;;;;;10.35;5.90;;;5.80;99.90;;;5.75;60.50;102784.97;5034479;28;20049;-68
2023/02/27 05:17:02;;;;;;;8.73;5.70;;;5.80;99.90;;;6.00;60.37;102838.69;5034209;28;20099;-69
2023/02/27 05:19:32;;;;;;;7.90;4.85;;;5.80;99.90;;;6.03;60.33;102840.56;5034209;28;20622;-69
2023/02/27 05:22:13;;;;;;;7.88;5.20;;;5.70;99.90;;;5.82;60.33;102821.19;5034009;28;20137;-69
2023/02/27 05:24:50;;;;;;;9.33;5.70;;;5.70;99.90;;;5.99;60.58;102844.78;5034254;28;20045;-68
2023/02/27 05:27:33;;;;;;;11.80;5.75;;;5.70;99.90;;;6.00;60.71;102841.31;5033255;28;20049;-69
2023/02/27 05:30:11;;;;;;;8.23;5.67;;;5.70;99.90;;;5.99;60.96;102847.41;5033961;28;20037;-69
2023/02/27 05:32:48;;;;;;;7.72;4.97;;;5.70;99.90;;;6.06;60.66;102846.84;5033945;28;20043;-69
2023/02/27 05:35:23;;;;;;;10.63;5.18;;;5.70;99.90;;;6.04;60.72;102832.75;5033915;28;20073;-68
2023/02/27 05:38:03;;;;;;;9.32;6.35;;;5.80;99.90;;;6.00;60.69;102840.44;5033818;28;20527;-69
2023/02/27 05:40:37;;;;;;;10.03;5.60;;;5.70;99.90;;;6.00;61.04;102843.94;4995016;28;1132338;-69
2023/02/27 05:43:12;;;;;;;12.20;6.43;;;5.80;99.90;;;5.96;61.03;102844.63;5034736;28;20925;-69
2023/02/27 05:45:46;;;;;;;8.17;6.20;;;5.70;99.90;;;5.90;61.63;102840.84;5034724;28;20484;-69
2023/02/27 05:48:22;;;;;;;9.40;6.40;;;5.70;99.90;;;5.84;61.29;102817.84;5033824;28;20400;-68
2023/02/27 05:50:52;;;;;;;16.80;6.37;;;5.70;99.90;;;5.10;61.27;102679.59;5035084;28;20045;-69
2023/02/27 05:53:22;;;;;;;;;;;5.70;99.90;;;5.95;61.59;102844.56;5035176;28;20037;-70
2023/02/27 05:55:54;;;;;;;8.83;5.20;;;5.70;99.90;;;5.94;61.48;102842.78;5034611;28;19921;-69
2023/02/27 05:58:26;;;;;;;9.13;6.03;;;5.70;99.90;;;5.96;61.54;102855.16;5034616;28;20045;-69
2023/02/27 06:00:58;;;;;;;10.93;6.23;;;5.70;99.90;;;5.95;61.87;102862.97;5034644;28;20120;-69
2023/02/27 06:03:31;;;;;;;11.00;6.30;;;5.60;99.90;;;5.93;61.98;102855.00;5034720;28;20045;-68
2023/02/27 06:06:03;;;;;;;10.43;5.90;;;5.70;99.90;;;5.96;61.93;102855.16;5034477;28;20049;-69
2023/02/27 06:08:32;;;;;;;13.27;5.97;;;5.70;99.90;;;5.95;61.93;102862.97;5049944;28;20052;-69
2023/02/27 06:11:01;;;;;;;9.43;5.68;;;5.70;99.90;;;5.91;62.18;102859.28;5034311;28;20053;-68
2023/02/27 06:13:29;;;;;;;11.43;5.93;;;5.70;99.90;;;5.91;62.21;102867.19;5034218;28;20061;-69
2023/02/27 06:15:57;;;;;;;9.00;5.60;;;5.60;99.90;;;5.93;62.26;102854.09;5034501;28;20049;-69
2023/02/27 06:18:26;;;;;;;8.85;5.78;;;5.70;99.90;;;5.95;62.78;102862.97;5034433;28;20046;-69
2023/02/27 06:20:56;;;;;;;8.93;6.23;;;5.70;99.90;;;5.33;62.70;102757.63;5034133;28;20037;-68
2023/02/27 06:23:24;;;;;;;11.25;6.90;;;5.70;99.90;;;5.96;62.95;102864.78;5034189;28;20045;-69
2023/02/27 06:25:53;;;;;;;13.07;6.63;;;5.70;99.90;;;5.95;62.86;102871.75;5034161;28;20046;-69
2023/02/27 06:28:21;;;;;;;7.55;6.72;;;5.70;99.90;;;6.01;62.95;102868.50;5034537;28;20069;-68
2023/02/27 06:30:53;;;;;;;9.68;6.15;;;5.70;99.90;;;5.98;62.98;102863.13;5034240;28;20167;-69
2023/02/27 06:33:22;;;;;;;13.18;6.50;;;5.80;99.90;;;6.03;63.06;102885.22;5033901;28;20060;-68
2023/02/27 06:35:50;;;;;;;9.90;6.30;;;5.80;99.90;;;5.95;63.02;102877.00;5034448;28;20049;-69
2023/02/27 06:38:20;;;;;;;11.45;6.85;;;5.80;99.90;;;6.01;63.05;102887.78;5033787;28;20041;-69
2023/02/27 06:40:50;;;;;;;11.85;6.30;;;5.70;99.90;;;5.85;63.38;102908.91;5033405;28;20049;-68
2023/02/27 06:43:21;;;;;;;12.52;5.93;;;5.70;99.90;;;5.46;63.51;102794.09;5033638;28;20045;-69
2023/02/27 06:45:50;;;;;;;14.27;6.93;;;5.80;99.90;;;5.99;63.62;102896.41;5033914;28;20091;-69
2023/02/27 06:48:18;;;;;;;13.53;6.20;;;5.80;99.90;;;6.06;63.69;102902.03;5032483;28;20049;-68
2023/02/27 06:50:51;;;;;;;14.35;6.68;;;5.80;99.90;;;6.19;63.44;102907.00;5033762;28;20045;-68
2023/02/27 06:53:21;;;;;;;12.10;6.20;;;5.90;99.90;;;6.22;64.00;102906.25;5033559;28;20120;-69
2023/02/27 06:55:49;;;;;;;12.73;5.82;;;6.00;99.90;;;6.29;63.89;102903.09;5034016;28;20072;-69
2023/02/27 06:58:18;;;;;;;10.65;6.25;;;6.10;99.90;;;6.43;63.43;102917.75;5033617;28;20431;-68
2023/02/27 07:00:46;;;;;;;10.63;5.63;;;6.20;99.90;;;6.47;63.30;102913.50;5033280;28;20076;-68
2023/02/27 07:03:15;;;;;;;9.98;5.55;;;6.20;99.90;;;6.48;63.33;102907.44;5033551;28;20048;-68
2023/02/27 07:05:45;;;;;;;11.43;5.57;;;6.20;99.90;;;6.49;63.31;102910.13;5033133;28;20038;-68
2023/02/27 07:08:16;;;;;;;10.57;6.23;;;6.20;99.90;;;6.56;63.21;102916.56;5032939;28;20493;-68
2023/02/27 07:10:47;;;;;;;12.55;6.57;;;6.30;99.90;;;6.55;63.31;102928.81;5033295;28;20132;-69
2023/02/27 07:13:17;;;;;;;14.70;6.22;;;6.30;99.90;;;6.56;62.86;102924.47;5033111;28;20045;-69
2023/02/27 07:15:46;;;;;;;;;;;6.30;99.90;;;6.30;63.42;102890.03;5033923;28;20116;-69
2023/02/27 07:18:15;;;;;;;10.95;6.32;;;6.30;99.90;;;6.48;63.03;102917.97;5033230;28;19983;-68
2023/02/27 07:20:43;;;;;;;15.40;6.30;;;6.20;99.90;;;6.58;63.51;102933.31;5033157;28;20052;-68
2023/02/27 07:23:11;;;;;;;12.05;6.47;;;6.30;99.90;;;6.22;63.44;102859.88;5033365;28;20452;-68
2023/02/27 07:25:40;;;;;;;11.55;6.05;;;6.40;99.90;;;6.60;63.69;102936.91;5032721;28;20455;-68
2023/02/27 07:28:09;;;;;;;13.18;6.30;;;6.40;99.90;;;6.64;63.37;102921.31;5032796;28;20111;-68
2023/02/27 07:30:38;;;;;;;10.77;6.10;;;6.50;99.90;;;6.57;63.64;102899.97;5032851;28;20042;-68
2023/02/27 07:33:06;;;;;;;11.45;5.97;;;6.50;99.90;;;6.84;63.70;102938.91;5032867;28;20053;-69
2023/02/27 07:35:35;;;;;;;14.95;6.10;;;6.60;99.90;;;6.82;63.40;102951.06;5032755;28;20535;-69
2023/02/27 07:38:03;;;;;;;12.80;5.80;;;6.60;99.90;;;7.02;63.45;102938.78;5032646;28;20072;-68
2023/02/27 07:40:32;;;;;;;9.98;6.68;;;6.70;99.90;;;7.33;63.82;102936.63;5032474;28;20054;-68
2023/02/27 07:43:00;;;;;;;10.32;6.57;;;7.00;99.90;;;7.72;63.11;102933.00;5033056;28;20124;-69
2023/02/27 07:45:30;;;;;;;15.15;6.68;;;7.50;99.90;;;8.29;62.44;102939.66;5032870;28;20136;-68
2023/02/27 07:47:58;;;;;;;10.07;6.40;;;8.00;99.90;;;8.63;60.87;102945.34;5032595;28;20411;-69
2023/02/27 07:50:27;;;;;;;12.27;6.18;;;8.30;99.90;;;9.18;59.72;102948.22;5032558;28;20042;-69
2023/02/27 07:52:55;;;;;;;13.00;5.85;;;8.90;99.90;;;9.71;58.40;102953.56;5032411;28;20041;-69
2023/02/27 07:55:24;;;;;;;10.10;6.00;;;9.40;99.90;;;10.19;56.53;102958.63;5032523;28;20508;-69
2023/02/27 07:57:52;;;;;;;11.93;6.10;;;9.90;99.90;;;10.61;55.52;102946.66;5032435;28;20042;-69
2023/02/27 08:00:22;;;;;;;14.18;5.93;;;10.40;99.90;;;10.79;54.13;102945.44;5032263;28;20045;-69
2023/02/27 08:02:51;;;;;;;9.82;5.07;;;10.60;99.90;;;11.17;53.42;102946.47;5047886;28;20054;-69
2023/02/27 08:05:20;;;;;;;14.33;5.13;;;10.90;99.90;;;11.40;52.80;102947.97;5032302;28;20041;-69
2023/02/27 08:07:48;;;;;;;10.10;5.18;;;11.10;99.90;;;11.49;51.85;102934.97;5032342;28;20120;-69
2023/02/27 08:10:17;;;;;;;11.35;5.95;;;11.40;99.90;;;11.88;50.92;102942.13;5032628;28;20397;-69
2023/02/27 08:12:46;;;;;;;8.63;4.75;;;11.60;99.90;;;12.36;50.44;102951.19;5032362;28;20447;-69
2023/02/27 08:15:16;;;;;;;12.73;5.65;;;12.00;99.90;;;12.41;49.40;102949.50;5032297;28;20103;-69
2023/02/27 08:17:45;;;;;;;9.55;5.72;;;12.20;99.90;;;12.59;48.60;102945.50;5031210;28;20080;-69
2023/02/27 08:20:17;;;;;;;8.33;4.73;;;12.40;99.90;;;12.94;48.48;102956.81;5047889;28;20069;-69
2023/02/27 08:22:46;;;;;;;10.38;5.43;;;12.70;99.90;;;13.03;47.48;102938.44;5032589;28;20763;-69
2023/02/27 08:25:15;;;;;;;9.48;4.85;;;13.00;99.90;;;13.32;46.90;102974.41;5032156;28;20069;-69
2023/02/27 08:27:43;;;;;;;7.60;4.82;;;13.20;99.90;;;12.78;45.92;102872.41;5032234;28;20511;-70
2023/02/27 08:30:13;;;;;;;8.95;5.15;;;13.20;99.90;;;13.19;46.22;102968.84;5032183;28;20119;-69
2023/02/27 08:32:42;;;;;;;10.77;5.35;;;13.10;99.90;;;13.25;46.04;102968.97;5032605;28;20041;-69
2023/02/27 08:35:10;;;;;;;7.65;5.10;;;13.10;99.90;;;13.16;45.57;102976.78;5047603;28;20128;-67
2023/02/27 08:37:40;;;;;;;10.88;5.38;;;13.00;99.90;;;13.27;45.80;102981.41;5032345;28;20385;-67
2023/02/27 08:40:10;;;;;;;11.25;5.15;;;13.00;99.90;;;13.44;45.55;102981.72;5032322;28;20054;-67
2023/02/27 08:42:39;;;;;;;8.35;5.03;;;13.20;99.90;;;13.59;45.32;102985.53;5031152;28;20477;-67
2023/02/27 08:45:10;;;;;;;6.72;4.38;;;13.30;99.90;;;13.91;44.90;102988.72;5031867;28;20049;-67
2023/02/27 08:47:39;;;;;;;10.82;4.90;;;13.70;99.90;;;14.03;44.18;102982.72;5032036;28;20189;-67
2023/02/27 08:50:09;;;;;;;9.02;5.00;;;13.80;99.90;;;14.05;44.14;102991.59;5031969;28;20461;-66
2023/02/27 08:52:39;;;;;;;8.15;4.68;;;13.90;99.90;;;13.94;44.13;102994.09;5032213;28;20455;-67
2023/02/27 08:55:09;;;;;;;9.13;4.93;;;13.80;99.90;;;14.22;44.19;102993.66;5032024;28;20076;-67
2023/02/27 08:57:38;;;;;;;10.27;5.28;;;14.00;99.90;;;14.19;43.59;102990.03;5031984;28;20041;-70
2023/02/27 09:00:09;;;;;;;11.63;4.90;;;14.10;99.90;;;14.25;43.10;102979.47;5031915;28;20499;-69
2023/02/27 09:02:38;;;;;;;10.23;4.57;;;14.10;99.90;;;14.10;42.99;102998.78;5030800;28;20050;-69
2023/02/27 09:05:07;;;;;;;12.68;5.28;;;14.00;99.90;;;14.15;42.76;102996.22;5034464;28;20412;-70
2023/02/27 09:07:35;;;;;;;7.72;4.85;;;14.00;99.90;;;14.05;43.51;102986.28;5035407;28;20037;-70
2023/02/27 09:10:07;;;;;;;8.50;5.07;;;13.90;99.90;;;14.12;43.13;102994.38;5035437;28;20041;-69
2023/02/27 09:12:36;;;;;;;13.23;4.78;;;13.90;99.90;;;14.20;42.72;102997.16;5035353;28;20447;-70
2023/02/27 09:15:06;;;;;;;8.43;4.45;;;14.10;99.90;;;14.09;42.27;102998.78;5035361;28;20049;-70
2023/02/27 09:17:34;;;;;;;12.03;4.93;;;14.00;99.90;;;13.99;42.32;103002.16;5035335;28;20041;-70
2023/02/27 09:20:03;;;;;;;7.55;4.63;;;13.80;99.90;;;14.03;42.57;103009.31;5035468;28;20038;-70
2023/02/27 09:22:32;;;;;;;8.35;5.10;;;13.80;99.90;;;13.99;42.65;103003.06;5035231;28;20128;-67
2023/02/27 09:25:01;;;;;;;11.20;4.85;;;13.80;99.90;;;14.03;42.68;103011.97;5035322;28;20452;-67
2023/02/27 09:27:30;;;;;;;7.03;4.53;;;13.90;99.90;;;14.04;42.87;103012.00;5035028;28;20037;-67
2023/02/27 09:29:59;;;;;;;9.07;4.47;;;13.90;99.90;;;13.93;43.04;103008.28;5035121;28;20045;-67
2023/02/27 09:32:28;;;;;;;13.32;4.60;;;13.80;99.90;;;12.73;42.89;102911.25;5034958;28;20142;-67
2023/02/27 09:34:57;;;;;;;8.50;4.85;;;13.40;99.90;;;11.71;46.44;102997.41;5033698;28;20049;-67
2023/02/27 09:37:25;;;;;;;11.48;4.75;;;11.90;99.90;;;11.37;46.49;102998.25;5034958;28;20069;-67
2023/02/27 09:39:54;;;;;;;7.93;5.25;;;11.60;99.90;;;10.00;50.65;102996.78;5034739;28;20053;-66
2023/02/27 09:42:26;;;;;;;11.05;5.47;;;10.30;99.90;;;9.67;54.02;102996.59;5035246;28;20057;-67
2023/02/27 09:44:59;;;;;;;9.93;5.38;;;9.40;99.90;;;10.03;52.45;102988.94;5034747;28;20041;-67
2023/02/27 09:47:33;;;;;;;7.47;4.88;;;9.70;99.90;;;10.77;52.17;102992.16;5033581;28;20049;-68
2023/02/27 09:50:05;;;;;;;11.23;5.70;;;10.20;99.90;;;10.26;51.51;103011.75;5034914;28;20463;-67
2023/02/27 09:52:37;;;;;;;9.70;5.60;;;10.30;99.90;;;10.36;52.30;102983.84;5034637;28;20087;-67
2023/02/27 09:55:11;;;;;;;13.07;5.38;;;10.30;99.90;;;10.27;53.28;103007.38;5034560;28;20033;-67
2023/02/27 09:57:47;;;;;;;12.93;6.00;;;10.20;99.90;;;9.92;55.02;103009.78;5034643;28;20041;-67
2023/02/27 10:00:35;;;;;;;9.82;5.22;;;9.80;99.90;;;10.82;53.56;103008.16;5034931;28;20045;-67
2023/02/27 10:03:22;;;;;;;9.25;4.82;;;10.30;99.90;;;11.23;52.72;102999.63;5033219;28;20484;-68
2023/02/27 10:06:03;;;;;;;7.80;5.20;;;10.80;99.90;;;11.44;51.57;103002.84;5034523;28;20050;-68
2023/02/27 10:08:40;;;;;;;9.90;4.93;;;11.10;99.90;;;10.75;53.35;103003.56;5032904;28;20165;-67
2023/02/27 10:11:14;;;;;;;8.75;5.10;;;10.60;99.90;;;10.03;54.55;102986.31;5034268;28;20037;-67
2023/02/27 10:13:57;;;;;;;10.07;5.15;;;9.90;99.90;;;10.97;53.03;102992.72;5034228;28;20045;-67
2023/02/27 10:16:28;;;;;;;11.07;5.03;;;10.50;99.90;;;9.93;52.94;102993.03;5032444;28;20393;-67
2023/02/27 10:19:00;;;;;;;8.80;4.57;;;10.10;99.90;;;10.39;52.72;103010.41;5034208;28;20038;-67
2023/02/27 10:21:34;;;;;;;13.02;5.65;;;10.20;99.90;;;10.86;53.04;103004.75;5034156;28;20070;-67
2023/02/27 10:24:11;;;;;;;12.77;5.22;;;10.50;99.90;;;10.14;51.84;102969.09;5034076;28;20042;-67
2023/02/27 10:26:42;;;;;;;10.45;5.13;;;10.30;99.90;;;10.23;54.36;103003.75;5033952;28;20065;-68
2023/02/27 10:29:19;;;;;;;10.60;5.75;;;10.00;99.90;;;10.47;53.14;102985.09;5034080;28;20068;-67
2023/02/27 10:31:55;;;;;;;11.43;5.50;;;10.20;99.90;;;9.57;53.89;102997.13;5032939;28;20484;-68
2023/02/27 10:34:25;;;;;;;12.23;5.72;;;9.50;99.90;;;9.88;55.35;102997.31;5033868;28;20046;-68
2023/02/27 10:36:54;;;;;;;15.68;5.50;;;9.60;99.90;;;9.64;53.22;102971.81;5034088;28;20461;-68
2023/02/27 10:39:24;;;;;;;13.43;5.63;;;9.60;99.90;;;9.88;54.25;102986.72;5033612;28;20054;-67
2023/02/27 10:41:53;;;;;;;13.60;5.32;;;9.60;99.90;;;9.80;53.84;102977.66;5034078;28;20041;-67
2023/02/27 10:44:23;;;;;;;9.38;5.60;;;9.70;99.90;;;9.68;54.62;102989.53;5033630;28;20033;-67